createdAt,value
2023-04-24T00:00:49.860Z,15.10
2023-04-24T00:03:16.666Z,17.40
2023-04-24T00:05:43.954Z,17.10
2023-04-24T00:08:10.896Z,19.20
2023-04-24T00:10:37.663Z,18.40
2023-04-24T00:13:04.592Z,16.60
2023-04-24T00:15:32.269Z,15.80
2023-04-24T00:17:59.577Z,15.00
2023-04-24T00:20:26.447Z,17.70
2023-04-24T00:22:53.289Z,16.30
2023-04-24T00:25:20.127Z,16.50
2023-04-24T00:27:47.161Z,14.00
2023-04-24T00:30:14.162Z,14.20
2023-04-24T00:32:40.902Z,13.30
2023-04-24T00:35:08.153Z,19.10
2023-04-24T00:37:34.944Z,18.90
2023-04-24T00:40:01.893Z,13.60
2023-04-24T00:42:28.834Z,21.80
2023-04-24T00:44:55.642Z,18.20
2023-04-24T00:47:23.040Z,17.10
2023-04-24T00:49:49.786Z,16.00
2023-04-24T00:52:18.744Z,16.70
2023-04-24T00:54:49.016Z,16.70
2023-04-24T00:57:18.641Z,15.00
2023-04-24T00:59:45.661Z,17.20
2023-04-24T01:02:12.561Z,16.80
2023-04-24T01:04:39.789Z,19.70
2023-04-24T01:07:11.670Z,18.00
2023-04-24T01:09:40.284Z,18.50
2023-04-24T01:12:07.206Z,20.90
2023-04-24T01:14:34.262Z,15.80
2023-04-24T01:17:01.514Z,16.60
2023-04-24T01:19:28.782Z,19.00
2023-04-24T01:21:55.715Z,19.50
2023-04-24T01:24:22.436Z,17.20
2023-04-24T01:26:49.293Z,17.10
2023-04-24T01:29:16.051Z,22.70
2023-04-24T01:31:44.087Z,15.70
2023-04-24T01:34:11.386Z,26.40
2023-04-24T01:36:38.196Z,19.30
2023-04-24T01:39:04.943Z,15.10
2023-04-24T01:41:31.720Z,16.80
2023-04-24T01:43:58.988Z,15.70
2023-04-24T01:46:25.798Z,16.40
2023-04-24T01:48:53.238Z,16.00
2023-04-24T01:51:20.293Z,15.70
2023-04-24T01:53:47.125Z,24.50
2023-04-24T01:56:14.199Z,17.00
2023-04-24T01:58:41.019Z,14.90
2023-04-24T02:01:07.833Z,14.40
2023-04-24T02:03:34.925Z,14.70
2023-04-24T02:06:01.910Z,16.30
2023-04-24T02:08:28.724Z,13.90
2023-04-24T02:10:55.520Z,14.40
2023-04-24T02:13:22.342Z,14.80
2023-04-24T02:15:49.113Z,13.30
2023-04-24T02:18:16.673Z,12.70
2023-04-24T02:20:43.405Z,17.70
2023-04-24T02:23:10.330Z,13.90
2023-04-24T02:25:37.073Z,14.50
2023-04-24T02:28:04.015Z,13.90
2023-04-24T02:30:30.858Z,40.10
2023-04-24T02:32:57.618Z,56.80
2023-04-24T02:35:24.456Z,43.80
2023-04-24T02:37:51.366Z,32.80
2023-04-24T02:40:18.132Z,22.90
2023-04-24T02:42:44.868Z,18.80
2023-04-24T02:45:11.923Z,15.90
2023-04-24T02:47:38.748Z,14.50
2023-04-24T02:50:06.618Z,15.00
2023-04-24T02:52:33.459Z,17.30
2023-04-24T02:55:00.314Z,17.60
2023-04-24T02:57:27.142Z,18.70
2023-04-24T02:59:53.883Z,23.90
2023-04-24T03:02:21.845Z,14.50
2023-04-24T03:04:49.473Z,16.10
2023-04-24T03:07:16.372Z,14.80
2023-04-24T03:09:44.069Z,16.80
2023-04-24T03:12:11.195Z,17.90
2023-04-24T03:14:38.011Z,15.40
2023-04-24T03:17:05.495Z,18.30
2023-04-24T03:19:32.442Z,15.80
2023-04-24T03:22:04.111Z,20.20
2023-04-24T03:24:31.759Z,15.80
2023-04-24T03:26:58.806Z,16.10
2023-04-24T03:29:54.838Z,15.70
2023-04-24T03:32:25.084Z,17.20
2023-04-24T03:34:52.574Z,13.00
2023-04-24T03:37:20.505Z,14.80
2023-04-24T03:39:53.840Z,13.80
2023-04-24T03:42:23.123Z,13.30
2023-04-24T03:44:52.548Z,15.90
2023-04-24T03:47:19.937Z,19.60
2023-04-24T03:49:47.385Z,30.40
2023-04-24T03:52:14.236Z,16.90
2023-04-24T03:54:41.490Z,18.60
2023-04-24T03:57:08.342Z,16.80
2023-04-24T03:59:35.857Z,23.00
2023-04-24T04:02:16.238Z,15.10
2023-04-24T04:04:43.855Z,17.90
2023-04-24T04:07:10.877Z,20.10
2023-04-24T04:09:38.128Z,16.70
2023-04-24T04:12:04.967Z,20.30
2023-04-24T04:14:32.835Z,20.00
2023-04-24T04:16:59.597Z,19.20
2023-04-24T04:19:26.669Z,19.80
2023-04-24T04:21:54.561Z,20.90
2023-04-24T04:24:47.336Z,23.50
2023-04-24T04:27:14.490Z,24.90
2023-04-24T04:29:49.860Z,29.30
2023-04-24T04:32:17.165Z,24.50
2023-04-24T04:34:46.518Z,28.50
2023-04-24T04:37:14.294Z,26.40
2023-04-24T04:39:52.031Z,23.70
2023-04-24T04:42:22.988Z,18.90
2023-04-24T04:44:51.359Z,25.80
2023-04-24T04:47:25.521Z,32.70
2023-04-24T04:49:54.060Z,31.70
2023-04-24T04:52:26.309Z,16.60
2023-04-24T04:54:57.198Z,22.20
2023-04-24T04:57:28.749Z,24.90
2023-04-24T04:59:56.041Z,22.40
2023-04-24T05:02:33.857Z,20.90
2023-04-24T05:05:01.208Z,21.00
2023-04-24T05:07:28.291Z,30.40
2023-04-24T05:09:55.837Z,17.60
2023-04-24T05:12:22.890Z,31.50
2023-04-24T05:14:52.023Z,16.40
2023-04-24T05:17:19.523Z,16.10
2023-04-24T05:19:47.418Z,23.60
2023-04-24T05:22:15.089Z,22.80
2023-04-24T05:24:48.715Z,20.60
2023-04-24T05:27:37.899Z,26.50
2023-04-24T05:30:08.836Z,16.70
2023-04-24T05:32:35.978Z,20.90
2023-04-24T05:35:02.951Z,16.40
2023-04-24T05:37:29.794Z,18.20
2023-04-24T05:39:57.260Z,19.80
2023-04-24T05:42:24.125Z,17.10
2023-04-24T05:44:53.249Z,16.60
2023-04-24T05:47:22.822Z,17.00
2023-04-24T05:49:50.659Z,18.60
2023-04-24T05:52:17.526Z,18.40
2023-04-24T05:54:44.334Z,23.00
2023-04-24T05:57:11.884Z,14.60
2023-04-24T05:59:53.360Z,19.50
2023-04-24T06:02:23.525Z,21.00
2023-04-24T06:04:53.253Z,19.50
2023-04-24T06:07:20.233Z,20.90
2023-04-24T06:09:47.012Z,18.00
2023-04-24T06:12:13.834Z,13.20
2023-04-24T06:17:30.504Z,17.00
2023-04-24T06:19:57.465Z,16.10
2023-04-24T06:22:24.916Z,15.10
2023-04-24T06:24:51.872Z,11.40
2023-04-24T06:27:18.711Z,14.90
2023-04-24T06:29:45.662Z,14.70
2023-04-24T06:32:12.661Z,17.10
2023-04-24T06:34:39.897Z,10.80
2023-04-24T06:37:06.756Z,10.20
2023-04-24T06:39:33.545Z,11.20
2023-04-24T06:42:00.363Z,11.00
2023-04-24T06:44:27.229Z,10.70
2023-04-24T06:46:53.998Z,10.70
2023-04-24T06:49:21.255Z,16.00
2023-04-24T06:51:48.041Z,11.30
2023-04-24T06:54:14.872Z,11.50
2023-04-24T06:56:41.821Z,13.70
2023-04-24T06:59:08.597Z,11.20
2023-04-24T07:01:35.617Z,13.60
2023-04-24T07:04:02.689Z,19.10
2023-04-24T07:06:32.925Z,13.00
2023-04-24T07:09:01.369Z,14.20
2023-04-24T07:11:30.322Z,8.80
2023-04-24T07:13:57.182Z,11.70
2023-04-24T07:16:24.619Z,10.30
2023-04-24T07:18:51.510Z,9.20
2023-04-24T07:21:18.266Z,10.30
2023-04-24T07:23:45.027Z,10.40
2023-04-24T07:26:11.872Z,10.40
2023-04-24T07:28:38.665Z,14.80
2023-04-24T07:31:05.878Z,10.40
2023-04-24T07:33:32.683Z,10.00
2023-04-24T07:35:59.933Z,11.50
2023-04-24T07:38:26.954Z,13.40
2023-04-24T07:40:53.866Z,9.90
2023-04-24T07:43:21.324Z,10.70
2023-04-24T07:45:48.327Z,11.10
2023-04-24T07:48:17.338Z,11.00
2023-04-24T07:50:44.801Z,10.30
2023-04-24T07:53:11.715Z,11.70
2023-04-24T07:55:38.473Z,10.30
2023-04-24T07:58:05.302Z,7.20
2023-04-24T08:00:32.279Z,11.50
2023-04-24T08:02:59.159Z,9.70
2023-04-24T08:05:28.569Z,11.10
2023-04-24T08:07:56.224Z,8.60
2023-04-24T08:10:23.634Z,8.10
2023-04-24T08:12:50.365Z,8.20
2023-04-24T08:15:17.191Z,10.20
2023-04-24T08:17:44.059Z,13.60
2023-04-24T08:20:14.665Z,9.30
2023-04-24T08:22:42.205Z,10.80
2023-04-24T08:25:10.182Z,8.60
2023-04-24T08:27:37.836Z,8.90
2023-04-24T08:30:06.016Z,9.50
2023-04-24T08:32:32.921Z,12.50
2023-04-24T08:35:00.439Z,10.80
2023-04-24T08:37:27.750Z,9.90
2023-04-24T08:39:54.620Z,8.60
2023-04-24T08:42:21.892Z,7.00
2023-04-24T08:44:50.000Z,10.50
2023-04-24T08:47:17.220Z,8.60
2023-04-24T08:49:47.864Z,9.50
2023-04-24T08:52:14.607Z,7.80
2023-04-24T08:54:41.788Z,11.20
2023-04-24T08:57:09.030Z,8.00
2023-04-24T08:59:36.486Z,7.80
2023-04-24T09:02:03.277Z,8.90
2023-04-24T09:04:30.298Z,9.40
2023-04-24T09:06:58.432Z,7.80
2023-04-24T09:09:25.831Z,15.00
2023-04-24T09:11:54.725Z,7.30
2023-04-24T09:14:22.085Z,10.40
2023-04-24T09:19:19.412Z,9.90
2023-04-24T09:21:47.246Z,10.50
2023-04-24T09:24:19.000Z,9.10
2023-04-24T09:26:46.049Z,6.90
2023-04-24T09:29:19.429Z,5.90
2023-04-24T09:31:46.789Z,8.50
2023-04-24T09:34:13.805Z,8.00
2023-04-24T09:36:42.523Z,7.60
2023-04-24T09:39:13.879Z,6.70
2023-04-24T09:41:54.213Z,6.80
2023-04-24T09:44:24.432Z,5.80
2023-04-24T09:46:55.802Z,7.10
2023-04-24T09:49:30.285Z,6.40
2023-04-24T09:52:08.645Z,7.70
2023-04-24T09:54:37.817Z,6.20
2023-04-24T09:57:04.905Z,10.90
2023-04-24T09:59:31.795Z,9.90
2023-04-24T10:02:00.241Z,6.90
2023-04-24T10:04:28.164Z,7.10
2023-04-24T10:06:56.958Z,5.10
2023-04-24T10:09:25.158Z,5.40
2023-04-24T10:11:52.821Z,5.30
2023-04-24T10:14:22.214Z,5.60
2023-04-24T10:16:49.226Z,7.80
2023-04-24T10:19:16.613Z,7.00
2023-04-24T10:21:47.422Z,5.70
2023-04-24T10:24:18.849Z,5.20
2023-04-24T10:26:46.531Z,7.90
2023-04-24T10:29:14.128Z,9.30
2023-04-24T10:31:41.463Z,5.10
2023-04-24T10:34:09.417Z,4.60
2023-04-24T10:36:37.739Z,5.10
2023-04-24T10:39:07.665Z,7.60
2023-04-24T10:41:36.171Z,5.70
2023-04-24T10:44:13.794Z,5.60
2023-04-24T10:46:45.100Z,5.10
2023-04-24T10:49:12.433Z,8.80
2023-04-24T10:52:03.037Z,16.70
2023-04-24T10:54:45.604Z,11.00
2023-04-24T10:57:33.699Z,6.50
2023-04-24T11:00:20.575Z,6.70
2023-04-24T11:02:54.018Z,4.40
2023-04-24T11:05:21.924Z,5.60
2023-04-24T11:08:14.261Z,5.40
2023-04-24T11:10:44.759Z,8.10
2023-04-24T11:13:12.828Z,5.90
2023-04-24T11:15:43.320Z,6.00
2023-04-24T11:18:17.037Z,8.20
2023-04-24T11:20:45.106Z,5.40
2023-04-24T11:23:13.461Z,8.30
2023-04-24T11:25:40.424Z,6.00
2023-04-24T11:28:07.395Z,5.70
2023-04-24T11:30:37.437Z,5.80
2023-04-24T11:33:05.221Z,4.80
2023-04-24T11:35:36.757Z,7.20
2023-04-24T11:38:19.451Z,7.60
2023-04-24T11:40:50.844Z,6.00
2023-04-24T11:43:19.785Z,7.80
2023-04-24T11:45:49.444Z,6.00
2023-04-24T11:48:22.729Z,5.50
2023-04-24T11:50:50.941Z,6.00
2023-04-24T11:53:21.672Z,5.10
2023-04-24T11:55:48.660Z,9.90
2023-04-24T11:58:15.424Z,6.90
2023-04-24T12:00:42.444Z,6.20
2023-04-24T12:03:10.845Z,11.30
2023-04-24T12:05:38.851Z,6.60
2023-04-24T12:08:06.249Z,6.40
2023-04-24T12:10:33.537Z,6.40
2023-04-24T12:13:00.982Z,4.60
2023-04-24T12:15:28.070Z,7.60
2023-04-24T12:17:55.760Z,6.30
2023-04-24T12:20:31.195Z,7.30
2023-04-24T12:23:00.422Z,5.90
2023-04-24T12:25:29.969Z,8.50
2023-04-24T12:28:15.170Z,5.70
2023-04-24T12:30:49.544Z,7.90
2023-04-24T12:33:23.065Z,7.20
2023-04-24T12:35:54.240Z,9.20
2023-04-24T12:38:26.131Z,7.50
2023-04-24T12:41:09.873Z,7.10
2023-04-24T12:43:36.954Z,4.70
2023-04-24T12:46:04.472Z,7.50
2023-04-24T12:48:31.875Z,6.00
2023-04-24T12:51:02.355Z,9.60
2023-04-24T12:53:32.858Z,4.30
2023-04-24T12:55:59.671Z,5.50
2023-04-24T12:58:26.806Z,8.50
2023-04-24T13:00:53.780Z,11.10
2023-04-24T13:03:21.020Z,8.80
2023-04-24T13:05:48.190Z,9.50
2023-04-24T13:08:15.177Z,9.00
2023-04-24T13:10:42.282Z,7.80
2023-04-24T13:13:09.830Z,7.30
2023-04-24T13:15:36.962Z,6.50
2023-04-24T13:18:03.828Z,5.40
2023-04-24T13:20:30.940Z,6.70
2023-04-24T13:22:57.709Z,8.00
2023-04-24T13:25:37.035Z,6.50
2023-04-24T13:28:08.625Z,6.70
2023-04-24T13:30:37.260Z,9.80
2023-04-24T13:33:04.324Z,8.30
2023-04-24T13:35:31.180Z,8.10
2023-04-24T13:37:59.008Z,9.30
2023-04-24T13:40:25.877Z,10.50
2023-04-24T13:42:52.965Z,9.90
2023-04-24T13:45:25.100Z,18.00
2023-04-24T13:47:52.916Z,10.10
2023-04-24T13:50:20.701Z,14.00
2023-04-24T13:52:47.466Z,10.10
2023-04-24T13:55:14.335Z,8.70
2023-04-24T13:57:41.316Z,4.20
2023-04-24T14:00:11.524Z,10.50
2023-04-24T14:02:38.913Z,6.90
2023-04-24T14:05:07.091Z,6.80
2023-04-24T14:07:34.161Z,4.60
2023-04-24T14:10:01.145Z,6.00
2023-04-24T14:12:28.129Z,6.80
2023-04-24T14:14:54.992Z,5.70
2023-04-24T14:17:22.468Z,6.40
2023-04-24T14:19:49.361Z,5.90
2023-04-24T14:22:18.055Z,6.00
2023-04-24T14:24:44.962Z,6.60
2023-04-24T14:27:11.705Z,10.00
2023-04-24T14:29:38.472Z,4.50
2023-04-24T14:32:07.431Z,6.30
2023-04-24T14:34:40.187Z,6.30
2023-04-24T14:39:34.545Z,11.70
2023-04-24T14:42:02.348Z,6.70
2023-04-24T14:44:29.884Z,10.00
2023-04-24T14:46:56.659Z,6.80
2023-04-24T14:49:24.437Z,7.80
2023-04-24T14:51:51.249Z,7.40
2023-04-24T14:54:18.015Z,8.50
2023-04-24T14:56:45.437Z,7.10
2023-04-24T14:59:12.360Z,7.30
2023-04-24T15:01:39.226Z,8.00
2023-04-24T15:04:06.533Z,7.60
2023-04-24T15:06:33.963Z,7.90
2023-04-24T15:09:01.027Z,12.20
2023-04-24T15:11:28.034Z,10.00
2023-04-24T15:13:54.812Z,9.80
2023-04-24T15:16:21.642Z,8.20
2023-04-24T15:18:48.381Z,9.20
2023-04-24T15:21:15.694Z,12.50
2023-04-24T15:23:42.412Z,11.40
2023-04-24T15:26:09.082Z,12.90
2023-04-24T15:28:36.122Z,8.20
2023-04-24T15:31:02.820Z,9.40
2023-04-24T15:33:29.507Z,7.10
2023-04-24T15:35:56.322Z,6.10
2023-04-24T15:38:23.045Z,6.00
2023-04-24T15:40:49.737Z,7.80
2023-04-24T15:43:17.465Z,8.60
2023-04-24T15:45:44.496Z,13.70
2023-04-24T15:48:11.279Z,15.80
2023-04-24T15:50:38.604Z,12.90
2023-04-24T15:53:06.208Z,6.30
2023-04-24T15:58:29.614Z,9.20
2023-04-24T16:00:57.299Z,7.30
2023-04-24T16:03:24.452Z,10.10
2023-04-24T16:05:52.697Z,9.10
2023-04-24T16:08:19.539Z,5.00
2023-04-24T16:10:47.070Z,11.50
2023-04-24T16:13:14.504Z,5.60
2023-04-24T16:15:41.784Z,6.10
2023-04-24T16:18:08.628Z,9.40
2023-04-24T16:20:35.555Z,9.00
2023-04-24T16:23:02.602Z,9.50
2023-04-24T16:25:29.405Z,7.80
2023-04-24T16:27:57.160Z,6.60
2023-04-24T16:30:24.008Z,7.90
2023-04-24T16:32:51.039Z,6.70
2023-04-24T16:35:17.790Z,9.70
2023-04-24T16:37:44.550Z,8.00
2023-04-24T16:40:12.330Z,9.50
2023-04-24T16:42:39.153Z,9.70
2023-04-24T16:45:06.940Z,14.10
2023-04-24T16:47:33.716Z,10.30
2023-04-24T16:50:00.636Z,9.80
2023-04-24T16:52:27.398Z,9.40
2023-04-24T16:54:54.215Z,13.50
2023-04-24T16:57:21.403Z,11.50
2023-04-24T16:59:48.163Z,15.00
2023-04-24T17:02:14.945Z,53.20
2023-04-24T17:04:41.901Z,17.20
2023-04-24T17:07:09.083Z,22.70
2023-04-24T17:09:36.130Z,10.00
2023-04-24T17:12:02.971Z,17.80
2023-04-24T17:14:29.834Z,13.10
2023-04-24T17:16:56.703Z,24.00
2023-04-24T17:19:23.680Z,23.20
2023-04-24T17:21:50.458Z,9.50
2023-04-24T17:24:17.208Z,10.30
2023-04-24T17:26:44.053Z,14.90
2023-04-24T17:29:12.484Z,10.00
2023-04-24T17:31:41.466Z,10.70
2023-04-24T17:34:10.270Z,11.40
2023-04-24T17:36:38.539Z,19.10
2023-04-24T17:39:05.271Z,19.30
2023-04-24T17:41:32.012Z,19.00
2023-04-24T17:43:58.760Z,21.80
2023-04-24T17:46:25.861Z,12.70
2023-04-24T17:48:53.028Z,15.80
2023-04-24T17:51:20.262Z,24.60
2023-04-24T17:53:48.736Z,17.60
2023-04-24T17:56:15.746Z,16.90
2023-04-24T17:58:43.416Z,16.20
2023-04-24T18:01:10.178Z,21.90
2023-04-24T18:03:38.976Z,18.50
2023-04-24T18:06:06.167Z,14.40
2023-04-24T18:08:32.909Z,16.40
2023-04-24T18:10:59.686Z,24.50
2023-04-24T18:13:30.957Z,14.50
2023-04-24T18:15:57.957Z,16.30
2023-04-24T18:18:24.878Z,22.20
2023-04-24T18:20:51.620Z,34.10
2023-04-24T18:23:18.368Z,24.70
2023-04-24T18:25:45.962Z,26.60
2023-04-24T18:28:12.850Z,37.60
2023-04-24T18:30:39.800Z,21.50
2023-04-24T18:33:06.560Z,22.40
2023-04-24T18:35:33.413Z,18.20
2023-04-24T18:38:00.381Z,16.40
2023-04-24T18:40:28.397Z,18.50
2023-04-24T18:42:56.710Z,21.30
2023-04-24T18:45:26.255Z,27.20
2023-04-24T18:47:54.365Z,19.40
2023-04-24T18:50:22.178Z,16.30
2023-04-24T18:52:49.102Z,16.90
2023-04-24T18:55:15.943Z,23.30
2023-04-24T18:57:42.697Z,17.20
2023-04-24T19:00:10.270Z,21.50
2023-04-24T19:02:37.195Z,24.20
2023-04-24T19:05:04.700Z,33.90
2023-04-24T19:07:31.461Z,26.30
2023-04-24T19:09:58.195Z,22.00
2023-04-24T19:12:25.350Z,18.90
2023-04-24T19:14:52.204Z,20.80
2023-04-24T19:17:23.631Z,19.80
2023-04-24T19:22:20.116Z,18.80
2023-04-24T19:24:47.762Z,18.60
2023-04-24T19:27:14.619Z,18.40
2023-04-24T19:29:42.170Z,26.70
2023-04-24T19:32:09.175Z,23.50
2023-04-24T19:34:37.666Z,24.00
2023-04-24T19:37:06.136Z,28.10
2023-04-24T19:39:33.112Z,25.20
2023-04-24T19:42:01.286Z,29.90
2023-04-24T19:44:28.309Z,20.60
2023-04-24T19:46:55.074Z,21.90
2023-04-24T19:49:22.018Z,26.50
2023-04-24T19:51:49.296Z,35.60
2023-04-24T19:54:16.705Z,34.40
2023-04-24T19:56:43.510Z,34.10
2023-04-24T19:59:10.794Z,24.20
2023-04-24T20:01:39.778Z,25.90
2023-04-24T20:04:11.992Z,26.20
2023-04-24T20:06:39.056Z,31.40
2023-04-24T20:09:06.000Z,25.80
2023-04-24T20:11:33.706Z,29.40
2023-04-24T20:14:03.645Z,30.80
2023-04-24T20:16:31.297Z,41.80
2023-04-24T20:18:58.757Z,29.70
2023-04-24T20:21:25.510Z,33.20
2023-04-24T20:23:52.322Z,21.10
2023-04-24T20:26:19.139Z,29.40
2023-04-24T20:28:46.389Z,29.80
2023-04-24T20:31:14.010Z,27.30
2023-04-24T20:33:41.760Z,20.70
2023-04-24T20:36:11.454Z,22.90
2023-04-24T20:38:38.184Z,24.00
2023-04-24T20:41:05.379Z,24.80
2023-04-24T20:43:32.164Z,29.00
2023-04-24T20:45:59.305Z,25.90
2023-04-24T20:48:26.631Z,27.50
2023-04-24T20:50:53.970Z,39.90
2023-04-24T20:53:21.109Z,49.30
2023-04-24T20:58:39.065Z,23.90
2023-04-24T21:01:06.775Z,22.20
2023-04-24T21:03:34.178Z,21.00
2023-04-24T21:06:01.027Z,20.60
2023-04-24T21:08:28.071Z,24.90
2023-04-24T21:10:55.020Z,20.00
2023-04-24T21:13:22.078Z,23.30
2023-04-24T21:15:48.850Z,22.30
2023-04-24T21:18:16.272Z,18.60
2023-04-24T21:20:43.123Z,19.80
2023-04-24T21:23:09.891Z,29.70
2023-04-24T21:25:36.899Z,20.60
2023-04-24T21:28:03.905Z,18.10
2023-04-24T21:30:31.252Z,22.30
2023-04-24T21:32:58.029Z,23.80
2023-04-24T21:37:06.512Z,16.70
2023-04-24T21:39:33.316Z,22.80
2023-04-24T21:42:00.171Z,23.00
2023-04-24T21:44:26.942Z,19.90
2023-04-24T21:46:54.819Z,19.70
2023-04-24T21:49:21.867Z,19.80
2023-04-24T21:51:48.578Z,24.20
2023-04-24T21:54:15.550Z,25.20
2023-04-24T21:56:42.291Z,28.50
2023-04-24T21:59:09.632Z,22.40
2023-04-24T22:01:36.546Z,18.60
2023-04-24T22:04:04.424Z,21.10
2023-04-24T22:06:32.322Z,17.10
2023-04-24T22:08:59.269Z,22.40
2023-04-24T22:11:27.368Z,27.80
2023-04-24T22:13:55.048Z,26.50
2023-04-24T22:16:22.941Z,23.40
2023-04-24T22:18:49.954Z,27.90
2023-04-24T22:21:16.772Z,27.60
2023-04-24T22:31:18.500Z,21.80
2023-04-24T22:33:46.930Z,26.40
2023-04-24T22:36:13.960Z,28.70
2023-04-24T22:38:40.712Z,22.50
2023-04-24T22:41:08.295Z,24.40
2023-04-24T22:43:35.006Z,23.90
2023-04-24T22:46:01.837Z,26.90
2023-04-24T22:48:28.597Z,19.80
2023-04-24T22:50:56.152Z,24.50
2023-04-24T22:53:23.239Z,22.20
2023-04-24T22:58:40.994Z,26.10
2023-04-24T23:01:07.991Z,20.90
2023-04-24T23:03:35.961Z,27.50
2023-04-24T23:06:03.155Z,24.70
2023-04-24T23:08:31.022Z,27.10
2023-04-24T23:10:57.850Z,24.40
2023-04-24T23:13:26.017Z,37.60
2023-04-24T23:15:54.715Z,23.00
2023-04-24T23:18:22.096Z,23.80
2023-04-24T23:20:49.115Z,21.90
2023-04-24T23:23:16.681Z,17.40
2023-04-24T23:25:43.529Z,24.70
2023-04-24T23:28:10.598Z,21.80
2023-04-24T23:30:37.354Z,22.40
2023-04-24T23:33:05.108Z,20.80
2023-04-24T23:35:32.036Z,21.90
2023-04-24T23:37:58.877Z,21.90
2023-04-24T23:40:25.612Z,21.70
2023-04-24T23:43:05.624Z,21.10
2023-04-24T23:45:34.261Z,23.30
2023-04-24T23:48:01.196Z,31.30
2023-04-24T23:50:28.024Z,21.20
2023-04-24T23:52:54.778Z,20.00
2023-04-24T23:55:21.573Z,27.50
2023-04-24T23:57:48.322Z,22.90
